Time;durP1;ratioP1;P1;durP2;ratioP2;P2;SDS_P1;SDS_P2;PMS_P1;PMS_P2;Temp;Humidity;BMP_temperature;BMP_pressure;BME280_temperature;BME280_humidity;BME280_pressure;Samples;Min_cycle;Max_cycle;Signal;HPM_P1;HPM_P2
2023/04/14 00:00:28;;;;;;;5.93;3.08;;;;;;;;;;5051443;28;20094;-76
2023/04/14 00:02:53;;;;;;;5.68;2.90;;;;;;;;;;5049762;28;20029;-76
2023/04/14 00:05:19;;;;;;;5.18;2.85;;;;;;;;;;5049967;28;20112;-76
2023/04/14 00:07:44;;;;;;;5.40;3.47;;;;;;;;;;5049848;28;20059;-75
2023/04/14 00:10:10;;;;;;;3.00;2.40;;;;;;;;;;5051519;28;20366;-75
2023/04/14 00:12:36;;;;;;;3.90;2.90;;;;;;;;;;5051482;28;20061;-75
2023/04/14 00:15:01;;;;;;;4.88;3.00;;;;;;;;;;5051518;28;20315;-75
2023/04/14 00:17:27;;;;;;;6.22;3.10;;;;;;;;;;5050784;28;20025;-76
2023/04/14 00:19:52;;;;;;;5.77;2.43;;;;;;;;;;5051157;28;20033;-75
2023/04/14 00:22:18;;;;;;;5.80;3.30;;;;;;;;;;5050128;28;20040;-75
2023/04/14 00:24:43;;;;;;;7.57;2.80;;;;;;;;;;5049548;28;20025;-75
2023/04/14 00:27:10;;;;;;;6.40;3.30;;;;;;;;;;5049112;28;20032;-75
2023/04/14 00:29:38;;;;;;;4.93;2.60;;;;;;;;;;5049593;28;20477;-76
2023/04/14 00:32:04;;;;;;;4.47;2.67;;;;;;;;;;5050417;28;20021;-75
2023/04/14 00:34:30;;;;;;;4.30;2.35;;;;;;;;;;5049497;28;20092;-75
2023/04/14 00:36:55;;;;;;;6.03;2.97;;;;;;;;;;5050878;28;20083;-75
2023/04/14 00:39:21;;;;;;;5.43;2.97;;;;;;;;;;5050967;28;20024;-75
2023/04/14 00:41:47;;;;;;;5.80;2.88;;;;;;;;;;5050835;28;20025;-76
2023/04/14 00:44:12;;;;;;;4.88;2.60;;;;;;;;;;5050668;28;20083;-75
2023/04/14 00:46:39;;;;;;;4.90;2.60;;;;;;;;;;5050013;28;20284;-75
2023/04/14 00:49:05;;;;;;;4.85;2.72;;;;;;;;;;5049864;28;20454;-75
2023/04/14 00:51:31;;;;;;;5.10;2.42;;;;;;;;;;5050881;28;20036;-76
2023/04/14 00:53:57;;;;;;;5.23;2.23;;;;;;;;;;5051259;28;20044;-75
2023/04/14 00:56:25;;;;;;;7.23;2.73;;;;;;;;;;5049644;28;20025;-76
2023/04/14 00:58:51;;;;;;;4.70;2.70;;;;;;;;;;5049518;28;20163;-75
2023/04/14 01:01:16;;;;;;;4.72;2.72;;;;;;;;;;5051070;28;20468;-75
2023/04/14 01:03:42;;;;;;;3.65;2.35;;;;;;;;;;5050973;28;20036;-75
2023/04/14 01:06:09;;;;;;;5.53;2.30;;;;;;;;;;5052570;28;20052;-75
2023/04/14 01:08:34;;;;;;;5.57;2.38;;;;;;;;;;5052938;28;20119;-74
2023/04/14 01:11:24;;;;;;;7.30;3.55;;;;;;;;;;5053879;28;20035;-75
2023/04/14 01:14:10;;;;;;;4.95;2.90;;;;;;;;;;5051423;28;20036;-74
2023/04/14 01:16:39;;;;;;;6.25;3.03;;;;;;;;;;5054509;28;20017;-75
2023/04/14 01:19:23;;;;;;;5.85;2.67;;;;;;;;;;5052429;28;20051;-74
2023/04/14 01:21:53;;;;;;;7.10;2.88;;;;;;;;;;5054052;28;20029;-75
2023/04/14 01:24:37;;;;;;;5.55;2.67;;;;;;;;;;5053681;28;20039;-75
2023/04/14 01:27:23;;;;;;;6.33;2.70;;;;;;;;;;5052775;28;20110;-75
2023/04/14 01:30:22;;;;;;;5.35;3.25;;;;;;;;;;5041914;28;20511;-75
2023/04/14 01:32:50;;;;;;;8.17;2.80;;;;;;;;;;5054890;28;20025;-75
2023/04/14 01:35:30;;;;;;;6.63;3.00;;;;;;;;;;5055210;28;20021;-75
2023/04/14 01:38:07;;;;;;;4.57;2.60;;;;;;;;;;5054095;28;20056;-76
2023/04/14 01:40:34;;;;;;;7.63;2.78;;;;;;;;;;5053087;28;20021;-75
2023/04/14 01:43:04;;;;;;;5.55;3.10;;;;;;;;;;5052249;28;20036;-75
2023/04/14 01:45:38;;;;;;;5.13;2.67;;;;;;;;;;5052361;28;20083;-74
2023/04/14 01:48:06;;;;;;;7.45;3.03;;;;;;;;;;5054659;28;20087;-76
2023/04/14 01:50:33;;;;;;;5.13;2.83;;;;;;;;;;5054217;28;20365;-75
2023/04/14 01:53:01;;;;;;;5.40;3.30;;;;;;;;;;5053391;28;20036;-75
2023/04/14 01:55:29;;;;;;;5.93;2.70;;;;;;;;;;5054646;28;20334;-75
2023/04/14 01:57:56;;;;;;;7.33;2.97;;;;;;;;;;5052870;28;20599;-76
2023/04/14 02:00:23;;;;;;;7.22;3.28;;;;;;;;;;5053876;28;20028;-75
2023/04/14 02:02:53;;;;;;;7.63;3.40;;;;;;;;;;5051858;28;20442;-75
2023/04/14 02:05:20;;;;;;;4.10;3.00;;;;;;;;;;5053195;28;20029;-75
2023/04/14 02:07:47;;;;;;;4.50;2.78;;;;;;;;;;5052569;28;20029;-75
2023/04/14 02:10:16;;;;;;;5.27;2.53;;;;;;;;;;5051853;28;20108;-75
2023/04/14 02:12:44;;;;;;;4.13;2.83;;;;;;;;;;5052224;28;20374;-76
2023/04/14 02:15:14;;;;;;;9.23;3.57;;;;;;;;;;5053050;28;20075;-76
2023/04/14 02:17:41;;;;;;;5.13;3.00;;;;;;;;;;5050808;28;20033;-75
2023/04/14 02:20:10;;;;;;;3.17;2.60;;;;;;;;;;5052744;28;20024;-75
2023/04/14 02:22:36;;;;;;;5.67;3.23;;;;;;;;;;5052920;28;20028;-75
2023/04/14 02:25:02;;;;;;;4.40;3.13;;;;;;;;;;5052795;28;20024;-75
2023/04/14 02:27:53;;;;;;;6.37;3.70;;;;;;;;;;5051558;28;20016;-74
2023/04/14 02:30:24;;;;;;;5.37;3.70;;;;;;;;;;5051775;28;20029;-74
2023/04/14 02:33:15;;;;;;;7.25;3.60;;;;;;;;;;5052208;28;20021;-74
2023/04/14 02:35:54;;;;;;;7.93;4.60;;;;;;;;;;5050372;28;20473;-74
2023/04/14 02:38:33;;;;;;;8.27;4.90;;;;;;;;;;5051096;28;20044;-75
2023/04/14 02:41:01;;;;;;;6.22;4.00;;;;;;;;;;5051102;28;20037;-75
2023/04/14 02:43:32;;;;;;;10.37;4.60;;;;;;;;;;5051319;28;20029;-75
2023/04/14 02:46:01;;;;;;;7.15;4.22;;;;;;;;;;5050741;28;20076;-75
2023/04/14 02:48:32;;;;;;;7.67;4.77;;;;;;;;;;5051395;28;20083;-76
2023/04/14 02:50:59;;;;;;;8.97;5.13;;;;;;;;;;5052492;28;20029;-75
2023/04/14 02:53:26;;;;;;;9.77;4.13;;;;;;;;;;5051533;28;20262;-75
2023/04/14 02:55:52;;;;;;;9.23;4.83;;;;;;;;;;5051035;28;20031;-74
2023/04/14 02:58:18;;;;;;;10.33;4.90;;;;;;;;;;5051963;28;20025;-75
2023/04/14 03:00:45;;;;;;;9.23;5.47;;;;;;;;;;5051075;28;20106;-75
2023/04/14 03:03:11;;;;;;;9.57;5.20;;;;;;;;;;5050986;28;20435;-74
2023/04/14 03:05:42;;;;;;;9.20;5.63;;;;;;;;;;5052504;28;20415;-76
2023/04/14 03:08:11;;;;;;;11.13;6.23;;;;;;;;;;5051897;28;20078;-75
2023/04/14 03:10:37;;;;;;;9.83;5.73;;;;;;;;;;5052155;28;20048;-76
2023/04/14 03:13:03;;;;;;;14.13;7.07;;;;;;;;;;5052819;28;20021;-75
2023/04/14 03:15:31;;;;;;;13.93;6.40;;;;;;;;;;5051771;28;20040;-75
2023/04/14 03:17:58;;;;;;;11.80;7.37;;;;;;;;;;5051919;28;20016;-75
2023/04/14 03:20:25;;;;;;;11.00;6.70;;;;;;;;;;5050527;28;20039;-75
2023/04/14 03:23:05;;;;;;;10.53;7.07;;;;;;;;;;5050239;28;20028;-75
2023/04/14 03:25:34;;;;;;;13.33;7.10;;;;;;;;;;5052287;28;20025;-76
2023/04/14 03:28:02;;;;;;;12.93;7.10;;;;;;;;;;5050307;28;20328;-76
2023/04/14 03:30:33;;;;;;;13.90;8.23;;;;;;;;;;5050672;28;20028;-76
2023/04/14 03:33:05;;;;;;;13.43;7.73;;;;;;;;;;5048955;28;20092;-76
2023/04/14 03:35:32;;;;;;;14.40;8.13;;;;;;;;;;5050674;28;20025;-76
2023/04/14 03:37:59;;;;;;;12.77;7.77;;;;;;;;;;5050194;28;20086;-76
2023/04/14 03:40:32;;;;;;;13.93;8.10;;;;;;;;;;5050409;28;20041;-76
2023/04/14 03:42:59;;;;;;;13.53;8.00;;;;;;;;;;5051626;28;20028;-76
2023/04/14 03:45:27;;;;;;;13.67;8.73;;;;;;;;;;5049686;28;20025;-76
2023/04/14 03:47:58;;;;;;;12.67;7.50;;;;;;;;;;5049407;28;20056;-75
2023/04/14 03:50:28;;;;;;;12.93;8.13;;;;;;;;;;5049947;28;20064;-75
2023/04/14 03:52:56;;;;;;;14.33;8.17;;;;;;;;;;5049821;28;20055;-75
2023/04/14 03:55:23;;;;;;;13.10;8.23;;;;;;;;;;5050791;28;20033;-76
2023/04/14 03:57:49;;;;;;;14.87;8.33;;;;;;;;;;5051752;28;20036;-76
2023/04/14 04:00:16;;;;;;;13.70;8.53;;;;;;;;;;5050529;28;20029;-76
2023/04/14 04:02:42;;;;;;;14.93;9.07;;;;;;;;;;5051797;28;20087;-76
2023/04/14 04:05:09;;;;;;;14.37;8.70;;;;;;;;;;5052211;28;20052;-75
2023/04/14 04:07:36;;;;;;;16.50;8.83;;;;;;;;;;5050209;28;20104;-76
2023/04/14 04:10:06;;;;;;;20.80;9.70;;;;;;;;;;5051536;28;20066;-76
2023/04/14 04:12:32;;;;;;;15.83;8.70;;;;;;;;;;5050968;28;20469;-76
2023/04/14 04:14:58;;;;;;;18.70;9.20;;;;;;;;;;5051183;28;20041;-76
2023/04/14 04:17:25;;;;;;;12.80;8.77;;;;;;;;;;5049843;28;20025;-75
2023/04/14 04:19:53;;;;;;;14.80;9.60;;;;;;;;;;5049807;28;20032;-76
2023/04/14 04:22:20;;;;;;;18.77;9.40;;;;;;;;;;5051852;28;20059;-76
2023/04/14 04:24:47;;;;;;;13.00;8.60;;;;;;;;;;5049368;28;20112;-76
2023/04/14 04:27:13;;;;;;;16.00;9.30;;;;;;;;;;5049657;28;20074;-76
2023/04/14 04:29:40;;;;;;;16.67;9.23;;;;;;;;;;5049512;28;20029;-76
2023/04/14 04:32:06;;;;;;;14.20;9.20;;;;;;;;;;5051577;28;20028;-77
2023/04/14 04:34:32;;;;;;;14.73;9.17;;;;;;;;;;5049676;28;20171;-76
2023/04/14 04:37:00;;;;;;;16.57;10.10;;;;;;;;;;5049282;28;20043;-77
2023/04/14 04:39:26;;;;;;;13.57;8.20;;;;;;;;;;5049661;28;20059;-76
2023/04/14 04:42:03;;;;;;;13.87;8.43;;;;;;;;;;5055407;28;20087;-75
2023/04/14 04:44:31;;;;;;;15.70;8.17;;;;;;;;;;5047281;28;20356;-75
2023/04/14 04:46:57;;;;;;;14.63;7.70;;;;;;;;;;5048368;28;20056;-75
2023/04/14 04:49:22;;;;;;;12.97;7.77;;;;;;;;;;5052739;28;20036;-75
2023/04/14 04:51:48;;;;;;;16.57;8.90;;;;;;;;;;5071618;28;20056;-81
2023/04/14 04:54:14;;;;;;;12.03;8.17;;;;;;;;;;5054361;28;20064;-83
2023/04/14 04:56:40;;;;;;;18.37;8.63;;;;;;;;;;5053980;28;20043;-79
2023/04/14 04:59:05;;;;;;;14.63;8.60;;;;;;;;;;5055764;28;20545;-82
2023/04/14 05:01:31;;;;;;;18.50;8.60;;;;;;;;;;5042322;28;20033;-80
2023/04/14 05:03:57;;;;;;;13.10;8.57;;;;;;;;;;5053483;28;20040;-81
2023/04/14 05:06:22;;;;;;;12.10;7.13;;;;;;;;;;5045264;28;20174;-82
2023/04/14 05:08:52;;;;;;;13.57;7.33;;;;;;;;;;5058844;28;20028;-80
2023/04/14 05:11:18;;;;;;;14.33;7.93;;;;;;;;;;5046117;28;20041;-85
2023/04/14 05:13:45;;;;;;;12.97;7.57;;;;;;;;;;5045624;28;20504;-86
2023/04/14 05:16:15;;;;;;;13.57;7.63;;;;;;;;;;5061546;28;20112;-83
2023/04/14 05:18:42;;;;;;;17.07;8.63;;;;;;;;;;5053008;28;20063;-86
2023/04/14 05:21:09;;;;;;;11.77;8.00;;;;;;;;;;5061158;28;20090;-87
2023/04/14 05:23:36;;;;;;;14.37;8.90;;;;;;;;;;5055010;28;20046;-87
2023/04/14 05:26:03;;;;;;;15.63;9.13;;;;;;;;;;5057388;28;20032;-80
2023/04/14 05:28:29;;;;;;;16.63;8.67;;;;;;;;;;5053367;28;20032;-84
2023/04/14 05:30:55;;;;;;;12.93;8.43;;;;;;;;;;5046469;28;20390;-81
2023/04/14 05:33:21;;;;;;;15.47;9.20;;;;;;;;;;5053140;28;20090;-82
2023/04/14 05:35:47;;;;;;;20.23;9.70;;;;;;;;;;5041732;28;20088;-85
2023/04/14 05:38:13;;;;;;;18.27;9.60;;;;;;;;;;5054936;28;20072;-80
2023/04/14 05:40:39;;;;;;;15.63;9.57;;;;;;;;;;5052430;28;20025;-81
2023/04/14 05:43:04;;;;;;;17.87;9.27;;;;;;;;;;5048874;28;20430;-84
2023/04/14 05:45:30;;;;;;;16.50;9.00;;;;;;;;;;5056078;28;20378;-84
2023/04/14 05:47:56;;;;;;;11.47;7.50;;;;;;;;;;5056344;28;20024;-82
2023/04/14 05:50:21;;;;;;;9.80;6.87;;;;;;;;;;5047086;28;20388;-83
2023/04/14 05:52:48;;;;;;;16.83;7.60;;;;;;;;;;5053054;28;20025;-79
2023/04/14 05:55:13;;;;;;;14.90;7.37;;;;;;;;;;5061765;28;20021;-81
2023/04/14 05:57:39;;;;;;;8.80;6.97;;;;;;;;;;5056922;28;20035;-80
2023/04/14 06:00:09;;;;;;;11.03;6.70;;;;;;;;;;5039494;28;20068;-82
2023/04/14 06:02:35;;;;;;;10.43;6.53;;;;;;;;;;5056281;28;20013;-80
2023/04/14 06:05:01;;;;;;;12.43;6.60;;;;;;;;;;5058818;28;20027;-82
2023/04/14 06:07:27;;;;;;;13.07;7.30;;;;;;;;;;5055340;28;20580;-80
2023/04/14 06:09:53;;;;;;;13.80;6.67;;;;;;;;;;5062482;28;20033;-81
2023/04/14 06:12:18;;;;;;;12.37;5.77;;;;;;;;;;5054292;28;20081;-79
2023/04/14 06:14:44;;;;;;;9.43;5.60;;;;;;;;;;5051686;28;20119;-80
2023/04/14 06:17:09;;;;;;;12.43;6.27;;;;;;;;;;5049987;28;20024;-83
2023/04/14 06:19:35;;;;;;;13.10;6.00;;;;;;;;;;5053468;28;20020;-83
2023/04/14 06:22:01;;;;;;;15.43;5.50;;;;;;;;;;5052413;28;20031;-80
2023/04/14 06:24:26;;;;;;;10.63;5.97;;;;;;;;;;5052514;28;20023;-78
2023/04/14 06:26:52;;;;;;;12.63;5.80;;;;;;;;;;5052671;28;20033;-80
2023/04/14 06:29:17;;;;;;;14.17;6.70;;;;;;;;;;5053636;28;20032;-78
2023/04/14 06:31:43;;;;;;;11.13;5.30;;;;;;;;;;5051356;28;20181;-79
2023/04/14 06:34:09;;;;;;;6.93;5.10;;;;;;;;;;5033063;28;20064;-80
2023/04/14 06:36:43;;;;;;;9.47;4.90;;;;;;;;;;5039432;28;20405;-81
2023/04/14 06:39:09;;;;;;;7.37;4.63;;;;;;;;;;5048070;28;20037;-81
2023/04/14 06:41:35;;;;;;;9.00;5.23;;;;;;;;;;5047404;28;20116;-83
2023/04/14 06:44:00;;;;;;;7.17;4.40;;;;;;;;;;5044948;28;20124;-79
2023/04/14 06:46:34;;;;;;;11.03;4.83;;;;;;;;;;5047000;28;20049;-83
2023/04/14 06:49:00;;;;;;;7.67;4.40;;;;;;;;;;5040822;28;20084;-79
2023/04/14 06:51:31;;;;;;;9.27;4.33;;;;;;;;;;5056379;28;20091;-80
2023/04/14 06:53:57;;;;;;;6.33;4.50;;;;;;;;;;5047402;28;20020;-84
2023/04/14 06:56:23;;;;;;;9.27;5.00;;;;;;;;;;5063637;28;20061;-80
2023/04/14 06:58:49;;;;;;;7.23;4.37;;;;;;;;;;5052141;28;20044;-82
2023/04/14 07:01:15;;;;;;;8.00;3.80;;;;;;;;;;5048958;28;20096;-83
2023/04/14 07:03:40;;;;;;;8.53;4.17;;;;;;;;;;5052397;28;20100;-80
2023/04/14 07:06:12;;;;;;;5.90;4.10;;;;;;;;;;5052234;28;20053;-84
2023/04/14 07:09:12;;;;;;;10.97;4.57;;;;;;;;;;5047683;28;20029;-83
2023/04/14 07:11:39;;;;;;;11.13;4.73;;;;;;;;;;5040533;28;20077;-82
2023/04/14 07:14:05;;;;;;;10.83;5.43;;;;;;;;;;5042455;28;20457;-82
2023/04/14 07:16:30;;;;;;;8.37;4.17;;;;;;;;;;5043857;28;20033;-81
2023/04/14 07:18:56;;;;;;;7.83;4.83;;;;;;;;;;5060113;28;20075;-85
2023/04/14 07:21:21;;;;;;;8.77;4.60;;;;;;;;;;5055686;28;20016;-81
2023/04/14 07:23:47;;;;;;;8.20;4.03;;;;;;;;;;5036538;28;20476;-80
2023/04/14 07:26:13;;;;;;;8.60;4.37;;;;;;;;;;5048391;28;20079;-82
2023/04/14 07:28:39;;;;;;;4.70;3.20;;;;;;;;;;5064450;28;20032;-80
2023/04/14 07:31:08;;;;;;;10.70;3.80;;;;;;;;;;5037776;28;20114;-79
2023/04/14 07:33:35;;;;;;;20.43;5.20;;;;;;;;;;5035557;28;20084;-81
2023/04/14 07:36:06;;;;;;;6.27;3.67;;;;;;;;;;5042433;28;20059;-79
2023/04/14 07:38:32;;;;;;;7.83;4.13;;;;;;;;;;5040278;28;20163;-84
2023/04/14 07:40:57;;;;;;;9.43;3.70;;;;;;;;;;5063058;28;20039;-80
2023/04/14 07:43:23;;;;;;;7.63;3.13;;;;;;;;;;5060647;28;20024;-84
2023/04/14 07:45:50;;;;;;;19.47;4.27;;;;;;;;;;5049963;28;21356;-83
2023/04/14 07:48:18;;;;;;;7.77;3.43;;;;;;;;;;5047520;28;20024;-85
2023/04/14 07:50:44;;;;;;;10.80;4.23;;;;;;;;;;5046507;28;20040;-81
2023/04/14 07:53:11;;;;;;;3.73;3.00;;;;;;;;;;5044005;28;20041;-83
2023/04/14 07:55:38;;;;;;;6.83;3.80;;;;;;;;;;5044826;28;20041;-79
2023/04/14 07:58:04;;;;;;;7.73;3.00;;;;;;;;;;5047305;28;20063;-82
2023/04/14 08:00:29;;;;;;;4.63;3.10;;;;;;;;;;5044001;28;20127;-80
2023/04/14 08:02:55;;;;;;;6.90;3.20;;;;;;;;;;5041148;28;20021;-80
2023/04/14 08:05:21;;;;;;;9.17;3.23;;;;;;;;;;5045531;28;20500;-84
2023/04/14 08:07:48;;;;;;;4.23;2.57;;;;;;;;;;5038131;28;20045;-79
2023/04/14 08:10:14;;;;;;;6.90;3.10;;;;;;;;;;5042410;28;20068;-80
2023/04/14 08:12:40;;;;;;;4.73;2.60;;;;;;;;;;5037801;28;20032;-78
2023/04/14 08:15:06;;;;;;;5.77;3.57;;;;;;;;;;5041445;28;20032;-79
2023/04/14 08:17:31;;;;;;;7.23;2.83;;;;;;;;;;5045778;28;20060;-81
2023/04/14 08:19:57;;;;;;;3.47;2.50;;;;;;;;;;5037959;28;20449;-82
2023/04/14 08:22:24;;;;;;;16.27;4.03;;;;;;;;;;5042250;28;20037;-80
2023/04/14 08:24:51;;;;;;;6.13;3.00;;;;;;;;;;5042699;28;20068;-81
2023/04/14 08:27:16;;;;;;;4.50;2.77;;;;;;;;;;5045254;28;20036;-81
2023/04/14 08:29:42;;;;;;;3.67;2.90;;;;;;;;;;5051254;28;20108;-80
2023/04/14 08:32:08;;;;;;;4.47;2.63;;;;;;;;;;5043067;28;20028;-80
2023/04/14 08:34:33;;;;;;;3.40;2.50;;;;;;;;;;5048841;28;20314;-83
2023/04/14 08:36:59;;;;;;;8.10;3.20;;;;;;;;;;5053399;28;20625;-80
2023/04/14 08:39:25;;;;;;;4.50;3.03;;;;;;;;;;5043882;28;20202;-79
2023/04/14 08:41:52;;;;;;;8.50;3.37;;;;;;;;;;5054679;28;20029;-80
2023/04/14 08:44:18;;;;;;;6.17;3.03;;;;;;;;;;5047300;28;20029;-82
2023/04/14 08:46:45;;;;;;;5.73;3.27;;;;;;;;;;5049418;28;20507;-79
2023/04/14 08:49:18;;;;;;;5.47;3.00;;;;;;;;;;5049207;28;20021;-82
2023/04/14 08:51:44;;;;;;;4.67;3.20;;;;;;;;;;5054192;28;20412;-78
2023/04/14 08:54:15;;;;;;;13.27;3.70;;;;;;;;;;5039805;28;20116;-79
2023/04/14 08:56:42;;;;;;;11.20;4.65;;;;;;;;;;5038273;28;20083;-77
2023/04/14 08:59:13;;;;;;;8.47;3.67;;;;;;;;;;5041851;28;20052;-80
2023/04/14 09:01:38;;;;;;;8.37;3.37;;;;;;;;;;5047469;28;20048;-79
2023/04/14 09:04:05;;;;;;;6.87;2.87;;;;;;;;;;5054343;28;20540;-82
2023/04/14 09:06:32;;;;;;;5.70;3.30;;;;;;;;;;5044950;28;20452;-78
2023/04/14 09:09:06;;;;;;;6.37;3.50;;;;;;;;;;5060570;28;20020;-81
2023/04/14 09:11:32;;;;;;;5.03;2.73;;;;;;;;;;5060339;28;20016;-80
2023/04/14 09:13:59;;;;;;;7.40;3.00;;;;;;;;;;5041667;28;20037;-79
2023/04/14 09:16:26;;;;;;;5.47;2.90;;;;;;;;;;5043739;28;20475;-80
2023/04/14 09:18:53;;;;;;;4.63;2.83;;;;;;;;;;5039950;28;20779;-79
2023/04/14 09:21:19;;;;;;;6.00;3.92;;;;;;;;;;5039093;28;20028;-81
2023/04/14 09:23:46;;;;;;;5.88;3.35;;;;;;;;;;5049900;28;20059;-80
2023/04/14 09:26:12;;;;;;;7.35;3.92;;;;;;;;;;5045456;28;20035;-80
2023/04/14 09:28:38;;;;;;;6.53;3.13;;;;;;;;;;5065324;28;20036;-85
2023/04/14 09:31:04;;;;;;;8.88;2.78;;;;;;;;;;5045274;28;20039;-80
2023/04/14 09:33:31;;;;;;;3.53;2.53;;;;;;;;;;5057259;28;20354;-79
2023/04/14 09:35:56;;;;;;;5.93;3.23;;;;;;;;;;5041265;28;20043;-79
2023/04/14 09:38:38;;;;;;;7.65;3.70;;;;;;;;;;5042890;28;20032;-77
2023/04/14 09:41:05;;;;;;;5.97;4.03;;;;;;;;;;5047343;28;20129;-80
2023/04/14 09:43:31;;;;;;;11.43;3.97;;;;;;;;;;5049911;28;20473;-80
2023/04/14 09:46:03;;;;;;;4.80;3.63;;;;;;;;;;5030066;28;20102;-80
2023/04/14 09:48:29;;;;;;;;;;;;;;;;;;5048677;28;20426;-82
2023/04/14 09:51:08;;;;;;;5.90;3.10;;;;;;;;;;5042351;28;21061;-80
2023/04/14 09:53:43;;;;;;;6.90;3.90;;;;;;;;;;5043360;28;20035;-81
2023/04/14 09:56:10;;;;;;;4.47;2.60;;;;;;;;;;5053240;28;20082;-80
2023/04/14 09:58:42;;;;;;;5.07;2.95;;;;;;;;;;5065703;28;20103;-81
2023/04/14 10:01:15;;;;;;;6.53;3.35;;;;;;;;;;5051164;28;20024;-81
2023/04/14 10:03:45;;;;;;;3.53;2.93;;;;;;;;;;5047401;28;20032;-80
2023/04/14 10:06:21;;;;;;;5.67;3.00;;;;;;;;;;5049409;28;20119;-82
2023/04/14 10:08:48;;;;;;;7.57;3.13;;;;;;;;;;5045534;28;20029;-80
2023/04/14 10:11:18;;;;;;;5.57;3.43;;;;;;;;;;5054259;28;20029;-81
2023/04/14 10:13:45;;;;;;;7.13;3.57;;;;;;;;;;5046966;28;20032;-79
2023/04/14 10:16:12;;;;;;;7.37;4.07;;;;;;;;;;5047397;28;20041;-82
2023/04/14 10:18:38;;;;;;;11.20;4.17;;;;;;;;;;5053317;28;20840;-81
2023/04/14 10:21:06;;;;;;;8.83;4.17;;;;;;;;;;5053482;28;20100;-80
2023/04/14 10:23:59;;;;;;;10.03;3.93;;;;;;;;;;5050885;28;20028;-80
2023/04/14 10:26:28;;;;;;;8.53;3.40;;;;;;;;;;5046183;28;20033;-81
2023/04/14 10:28:55;;;;;;;7.30;3.90;;;;;;;;;;5059436;28;20033;-80
2023/04/14 10:31:38;;;;;;;4.90;3.50;;;;;;;;;;5052513;28;20043;-80
2023/04/14 10:34:11;;;;;;;4.83;3.57;;;;;;;;;;5052665;28;20021;-84
2023/04/14 10:36:37;;;;;;;8.17;4.20;;;;;;;;;;5048809;28;20040;-81
2023/04/14 10:39:05;;;;;;;6.13;4.33;;;;;;;;;;5055603;28;20029;-82
2023/04/14 10:41:42;;;;;;;7.97;3.83;;;;;;;;;;5054722;28;20036;-82
2023/04/14 10:44:38;;;;;;;3.90;3.37;;;;;;;;;;5040547;28;20029;-84
2023/04/14 10:47:06;;;;;;;27.03;15.00;;;;;;;;;;5034587;28;20756;-81
2023/04/14 10:49:40;;;;;;;8.73;4.43;;;;;;;;;;5048609;28;20033;-79
2023/04/14 10:52:26;;;;;;;5.33;4.00;;;;;;;;;;5041471;28;20663;-79
2023/04/14 10:55:08;;;;;;;6.67;3.23;;;;;;;;;;5044539;28;20107;-80
2023/04/14 10:57:44;;;;;;;;;;;;;;;;;;5048957;28;20935;-82
2023/04/14 11:00:25;;;;;;;5.87;3.20;;;;;;;;;;5044146;28;19916;-78
2023/04/14 11:02:55;;;;;;;5.57;3.23;;;;;;;;;;5043190;28;20041;-82
2023/04/14 11:05:25;;;;;;;3.43;2.90;;;;;;;;;;5049670;28;20024;-82
2023/04/14 11:07:56;;;;;;;5.07;2.73;;;;;;;;;;5048320;28;20026;-81
2023/04/14 11:10:25;;;;;;;3.42;2.33;;;;;;;;;;5048740;28;20112;-82
2023/04/14 11:12:56;;;;;;;3.53;2.93;;;;;;;;;;5046556;28;20086;-79
2023/04/14 11:16:00;;;;;;;4.22;3.08;;;;;;;;;;5046161;28;20039;-79
2023/04/14 11:18:41;;;;;;;6.73;2.60;;;;;;;;;;5048401;28;20087;-82
2023/04/14 11:21:14;;;;;;;5.93;3.30;;;;;;;;;;5053608;28;20033;-82
2023/04/14 11:23:43;;;;;;;2.97;2.67;;;;;;;;;;5047472;28;22018;-80
2023/04/14 11:26:12;;;;;;;3.47;2.60;;;;;;;;;;5044990;28;20049;-79
2023/04/14 11:28:42;;;;;;;4.80;2.70;;;;;;;;;;5030796;28;21252;-79
2023/04/14 11:31:12;;;;;;;3.93;2.33;;;;;;;;;;5035606;28;20028;-79
2023/04/14 11:33:40;;;;;;;6.33;3.03;;;;;;;;;;5041338;28;20033;-79
2023/04/14 11:36:08;;;;;;;6.17;3.80;;;;;;;;;;5041143;28;20044;-79
2023/04/14 11:38:44;;;;;;;2.50;2.30;;;;;;;;;;5038092;28;20094;-81
2023/04/14 11:41:13;;;;;;;4.50;3.13;;;;;;;;;;5041407;28;20036;-81
2023/04/14 11:43:45;;;;;;;5.25;3.13;;;;;;;;;;5060842;28;20032;-79
2023/04/14 11:46:15;;;;;;;4.25;2.75;;;;;;;;;;5049690;28;20153;-82
2023/04/14 11:48:40;;;;;;;4.05;3.10;;;;;;;;;;5045479;28;20041;-81
2023/04/14 11:51:06;;;;;;;4.33;2.80;;;;;;;;;;5045101;28;20182;-79
2023/04/14 11:53:33;;;;;;;2.53;2.25;;;;;;;;;;5042686;28;20162;-81
2023/04/14 11:56:00;;;;;;;4.82;2.55;;;;;;;;;;5041835;28;20051;-80
2023/04/14 11:58:27;;;;;;;3.95;2.08;;;;;;;;;;5046210;28;20048;-80
2023/04/14 12:00:58;;;;;;;4.63;2.13;;;;;;;;;;5048321;28;20044;-80
2023/04/14 12:03:28;;;;;;;5.27;2.67;;;;;;;;;;5040915;28;20037;-81
2023/04/14 12:06:01;;;;;;;3.47;2.37;;;;;;;;;;5046773;28;20049;-80
2023/04/14 12:08:40;;;;;;;3.63;2.60;;;;;;;;;;5039371;28;20052;-79
2023/04/14 12:11:13;;;;;;;5.63;2.90;;;;;;;;;;5047702;28;20140;-81
2023/04/14 12:13:40;;;;;;;3.83;3.07;;;;;;;;;;5049498;28;20037;-80
2023/04/14 12:16:11;;;;;;;5.17;3.13;;;;;;;;;;5047374;28;20030;-80
2023/04/14 12:18:36;;;;;;;3.95;2.30;;;;;;;;;;5042371;28;20017;-83
2023/04/14 12:21:04;;;;;;;3.87;2.63;;;;;;;;;;5064598;28;20053;-80
2023/04/14 12:23:40;;;;;;;2.90;2.30;;;;;;;;;;5029809;28;20043;-82
2023/04/14 12:26:13;;;;;;;4.93;3.07;;;;;;;;;;5045545;28;20037;-80
2023/04/14 12:28:43;;;;;;;3.30;1.70;;;;;;;;;;5064800;28;20033;-80
2023/04/14 12:31:10;;;;;;;3.27;2.00;;;;;;;;;;5048396;28;20040;-81
2023/04/14 12:33:37;;;;;;;4.73;2.33;;;;;;;;;;5046302;28;20073;-81
2023/04/14 12:36:04;;;;;;;3.60;2.33;;;;;;;;;;5044492;28;20029;-81
2023/04/14 12:38:30;;;;;;;4.73;2.13;;;;;;;;;;5047006;28;20576;-79
2023/04/14 12:40:57;;;;;;;4.93;3.20;;;;;;;;;;5050610;28;20155;-80
2023/04/14 12:43:31;;;;;;;3.93;2.20;;;;;;;;;;5044280;28;20068;-81
2023/04/14 12:45:57;;;;;;;5.00;1.95;;;;;;;;;;5050900;28;20049;-80
2023/04/14 12:48:45;;;;;;;3.87;2.40;;;;;;;;;;5047236;28;20109;-79
2023/04/14 12:51:13;;;;;;;4.27;2.47;;;;;;;;;;5031677;28;20037;-80
2023/04/14 12:53:40;;;;;;;2.10;1.90;;;;;;;;;;5044195;28;20841;-80
2023/04/14 12:56:09;;;;;;;3.33;2.30;;;;;;;;;;5046781;28;20899;-80
2023/04/14 12:58:39;;;;;;;2.97;2.43;;;;;;;;;;5045825;28;20024;-81
2023/04/14 13:01:09;;;;;;;2.77;2.23;;;;;;;;;;5049169;28;20025;-81
2023/04/14 13:03:45;;;;;;;3.17;2.60;;;;;;;;;;5047870;28;20090;-80
2023/04/14 13:06:15;;;;;;;5.80;3.60;;;;;;;;;;5063480;28;20032;-82
2023/04/14 13:08:46;;;;;;;3.53;2.90;;;;;;;;;;5045526;28;20139;-82
2023/04/14 13:11:13;;;;;;;3.58;2.63;;;;;;;;;;5044971;28;20063;-82
2023/04/14 13:13:38;;;;;;;6.37;3.50;;;;;;;;;;5048883;28;20075;-78
2023/04/14 13:16:04;;;;;;;5.80;2.90;;;;;;;;;;5049508;28;20146;-80
2023/04/14 13:18:30;;;;;;;3.43;2.80;;;;;;;;;;5040662;28;20056;-79
2023/04/14 13:20:56;;;;;;;3.60;2.57;;;;;;;;;;5048932;28;20075;-80
2023/04/14 13:23:22;;;;;;;3.43;2.93;;;;;;;;;;5041142;28;20033;-79
2023/04/14 13:25:48;;;;;;;4.77;2.90;;;;;;;;;;5050445;28;20021;-77
2023/04/14 13:28:17;;;;;;;4.95;2.83;;;;;;;;;;5050200;28;20047;-80
2023/04/14 13:30:44;;;;;;;4.50;2.60;;;;;;;;;;5053587;28;21778;-79
2023/04/14 13:33:09;;;;;;;4.70;2.97;;;;;;;;;;5065677;28;20461;-80
2023/04/14 13:35:35;;;;;;;3.77;2.90;;;;;;;;;;5050423;28;20039;-79
2023/04/14 13:38:01;;;;;;;3.87;3.00;;;;;;;;;;5047062;28;20481;-81
2023/04/14 13:40:30;;;;;;;4.13;2.97;;;;;;;;;;5047976;28;20432;-79
2023/04/14 13:42:55;;;;;;;6.53;3.70;;;;;;;;;;5046242;28;20433;-80
2023/04/14 13:45:22;;;;;;;5.90;3.93;;;;;;;;;;5046656;28;20112;-80
2023/04/14 13:47:48;;;;;;;7.23;3.33;;;;;;;;;;5042643;28;20044;-79
2023/04/14 13:50:14;;;;;;;7.23;3.60;;;;;;;;;;5045565;28;20052;-79
2023/04/14 13:52:42;;;;;;;5.20;2.83;;;;;;;;;;5045695;28;20031;-78
2023/04/14 13:55:08;;;;;;;5.63;3.00;;;;;;;;;;5041682;28;20031;-80
2023/04/14 13:57:34;;;;;;;7.77;3.10;;;;;;;;;;5044498;28;20025;-79
2023/04/14 14:00:00;;;;;;;4.30;2.50;;;;;;;;;;5046144;28;20111;-79
2023/04/14 14:02:26;;;;;;;6.37;3.10;;;;;;;;;;5043591;28;20036;-80
2023/04/14 14:04:51;;;;;;;3.20;2.90;;;;;;;;;;5050075;28;20027;-81
2023/04/14 14:07:17;;;;;;;3.67;3.13;;;;;;;;;;5055194;28;20037;-80
2023/04/14 14:09:44;;;;;;;3.63;2.83;;;;;;;;;;5047127;28;20391;-81
2023/04/14 14:12:11;;;;;;;4.80;3.33;;;;;;;;;;5048897;28;20512;-80
2023/04/14 14:14:38;;;;;;;4.10;3.20;;;;;;;;;;5052731;28;20112;-81
2023/04/14 14:17:04;;;;;;;4.77;3.07;;;;;;;;;;5050665;28;20341;-82
2023/04/14 14:19:29;;;;;;;6.37;3.70;;;;;;;;;;5053659;28;20028;-83
2023/04/14 14:21:55;;;;;;;6.53;3.40;;;;;;;;;;5055680;28;20145;-82
2023/04/14 14:24:21;;;;;;;6.57;4.37;;;;;;;;;;5052012;28;20062;-81
2023/04/14 14:26:46;;;;;;;4.47;3.40;;;;;;;;;;5051495;28;20065;-79
2023/04/14 14:29:12;;;;;;;5.53;3.60;;;;;;;;;;5046936;28;20041;-80
2023/04/14 14:31:37;;;;;;;5.23;3.50;;;;;;;;;;5053295;28;20455;-84
2023/04/14 14:34:03;;;;;;;6.03;4.10;;;;;;;;;;5054862;28;20397;-81
2023/04/14 14:36:29;;;;;;;6.72;3.88;;;;;;;;;;5061554;28;20025;-82
2023/04/14 14:38:54;;;;;;;5.23;3.57;;;;;;;;;;5052967;28;20036;-82
2023/04/14 14:41:21;;;;;;;5.13;3.70;;;;;;;;;;5046417;28;20021;-84
2023/04/14 14:43:48;;;;;;;4.93;3.80;;;;;;;;;;5031929;28;20435;-81
2023/04/14 14:46:14;;;;;;;6.17;3.37;;;;;;;;;;5045838;28;20433;-79
2023/04/14 14:48:40;;;;;;;5.27;3.10;;;;;;;;;;5056618;28;20036;-83